createdAt,value
2022-10-13T00:01:19.598Z,9.61
2022-10-13T00:04:22.206Z,9.53
2022-10-13T00:07:24.375Z,9.53
2022-10-13T00:10:27.406Z,9.48
2022-10-13T00:13:29.669Z,9.44
2022-10-13T00:16:32.824Z,9.37
2022-10-13T00:19:35.074Z,9.35
2022-10-13T00:22:37.764Z,9.35
2022-10-13T00:25:44.030Z,9.34
2022-10-13T00:28:51.967Z,9.33
2022-10-13T00:31:54.835Z,9.30
2022-10-13T00:34:57.819Z,9.30
2022-10-13T00:38:00.059Z,9.29
2022-10-13T00:41:05.473Z,9.30
2022-10-13T00:44:27.793Z,9.29
2022-10-13T00:47:38.775Z,9.28
2022-10-13T00:50:41.708Z,9.26
2022-10-13T00:53:46.576Z,9.23
2022-10-13T00:56:51.479Z,9.21
2022-10-13T00:59:54.326Z,9.18
2022-10-13T01:02:56.607Z,9.14
2022-10-13T01:06:01.568Z,9.08
2022-10-13T01:09:03.761Z,9.13
2022-10-13T01:12:06.179Z,9.13
2022-10-13T01:15:11.407Z,9.09
2022-10-13T01:18:19.773Z,9.10
2022-10-13T01:21:29.146Z,9.08
2022-10-13T01:24:52.238Z,9.03
2022-10-13T01:28:12.900Z,8.99
2022-10-13T01:31:32.350Z,8.97
2022-10-13T01:34:40.183Z,8.98
2022-10-13T01:38:05.837Z,8.91
2022-10-13T01:41:13.692Z,8.93
2022-10-13T01:44:17.511Z,8.94
2022-10-13T01:47:25.695Z,8.97
2022-10-13T01:50:28.330Z,8.95
2022-10-13T01:53:30.842Z,8.93
2022-10-13T01:56:33.417Z,8.92
2022-10-13T01:59:38.747Z,8.95
2022-10-13T02:02:50.760Z,8.93
2022-10-13T02:05:53.677Z,8.94
2022-10-13T02:08:59.522Z,8.89
2022-10-13T02:12:07.142Z,8.95
2022-10-13T02:15:12.787Z,8.90
2022-10-13T02:18:18.221Z,8.89
2022-10-13T02:21:20.504Z,8.93
2022-10-13T02:24:24.378Z,8.94
2022-10-13T02:27:26.645Z,8.86
2022-10-13T02:30:30.748Z,8.74
2022-10-13T02:33:33.307Z,8.73
2022-10-13T02:36:38.124Z,8.77
2022-10-13T02:39:40.538Z,8.77
2022-10-13T02:42:46.699Z,8.72
2022-10-13T02:45:49.011Z,8.69
2022-10-13T02:48:51.828Z,8.65
2022-10-13T02:51:54.163Z,8.79
2022-10-13T02:54:56.615Z,8.77
2022-10-13T02:57:58.824Z,8.75
2022-10-13T03:01:08.730Z,8.76
2022-10-13T03:04:11.554Z,8.71
2022-10-13T03:07:14.101Z,8.66
2022-10-13T03:10:16.505Z,8.64
2022-10-13T03:13:19.553Z,8.60
2022-10-13T03:16:21.825Z,8.55
2022-10-13T03:19:24.644Z,8.54
2022-10-13T03:22:26.906Z,8.47
2022-10-13T03:25:29.420Z,8.43
2022-10-13T03:28:32.354Z,8.40
2022-10-13T03:31:35.454Z,8.33
2022-10-13T03:34:37.733Z,8.32
2022-10-13T03:37:40.453Z,8.29
2022-10-13T03:40:42.637Z,8.31
2022-10-13T03:43:45.473Z,8.26
2022-10-13T03:46:47.657Z,8.23
2022-10-13T03:49:50.203Z,8.20
2022-10-13T03:52:52.474Z,8.16
2022-10-13T03:55:56.031Z,8.14
2022-10-13T03:59:01.881Z,8.13
2022-10-13T04:02:04.778Z,8.12
2022-10-13T04:05:07.518Z,8.04
2022-10-13T04:08:10.362Z,8.01
2022-10-13T04:11:14.262Z,7.98
2022-10-13T04:14:17.614Z,7.97
2022-10-13T04:17:20.091Z,7.95
2022-10-13T04:20:22.472Z,7.92
2022-10-13T04:23:25.387Z,7.93
2022-10-13T04:26:28.527Z,7.89
2022-10-13T04:29:31.710Z,7.89
2022-10-13T04:32:33.962Z,7.88
2022-10-13T04:35:41.427Z,7.85
2022-10-13T04:38:43.935Z,7.82
2022-10-13T04:41:46.325Z,7.81
2022-10-13T04:44:48.510Z,7.78
2022-10-13T04:47:52.974Z,7.77
2022-10-13T04:51:04.767Z,7.76
2022-10-13T04:54:07.319Z,7.74
2022-10-13T04:57:09.484Z,7.74
2022-10-13T05:00:12.230Z,7.74
2022-10-13T05:03:14.482Z,7.70
2022-10-13T05:06:17.828Z,7.70
2022-10-13T05:09:22.743Z,7.74
2022-10-13T05:12:25.315Z,7.77
2022-10-13T05:15:27.525Z,7.81
2022-10-13T05:18:30.130Z,7.89
2022-10-13T05:21:32.771Z,8.00
2022-10-13T05:24:38.540Z,8.01
2022-10-13T05:27:40.867Z,7.94
2022-10-13T05:30:45.299Z,7.95
2022-10-13T05:33:48.397Z,8.00
2022-10-13T05:36:52.514Z,8.07
2022-10-13T05:39:54.769Z,8.11
2022-10-13T05:42:57.338Z,8.12
2022-10-13T05:46:00.361Z,8.18
2022-10-13T05:49:04.356Z,8.27
2022-10-13T05:52:08.867Z,8.39
2022-10-13T05:55:12.906Z,8.46
2022-10-13T05:58:15.295Z,8.59
2022-10-13T06:01:21.878Z,8.77
2022-10-13T06:04:26.877Z,8.84
2022-10-13T06:07:29.583Z,9.00
2022-10-13T06:10:32.141Z,9.06
2022-10-13T06:13:34.685Z,9.15
2022-10-13T06:16:37.160Z,9.21
2022-10-13T06:19:39.443Z,9.38
2022-10-13T06:22:42.248Z,9.48
2022-10-13T06:25:51.655Z,9.63
2022-10-13T06:28:59.158Z,9.84
2022-10-13T06:32:02.621Z,9.99
2022-10-13T06:35:05.325Z,10.25
2022-10-13T06:38:07.793Z,10.32
2022-10-13T06:41:11.137Z,10.36
2022-10-13T06:44:14.102Z,10.54
2022-10-13T06:47:16.616Z,10.75
2022-10-13T06:50:18.947Z,10.94
2022-10-13T06:53:21.667Z,11.08
2022-10-13T06:56:24.076Z,11.11
2022-10-13T06:59:27.805Z,11.30
2022-10-13T07:02:30.190Z,11.43
2022-10-13T07:05:33.001Z,11.39
2022-10-13T07:08:35.452Z,11.55
2022-10-13T07:11:38.897Z,11.78
2022-10-13T07:14:43.730Z,11.94
2022-10-13T07:17:46.503Z,12.07
2022-10-13T07:20:48.807Z,12.26
2022-10-13T07:23:51.329Z,12.33
2022-10-13T07:26:53.547Z,12.45
2022-10-13T07:29:56.286Z,12.59
2022-10-13T07:33:00.068Z,12.98
2022-10-13T07:36:02.724Z,13.12
2022-10-13T07:39:04.999Z,13.21
2022-10-13T07:42:07.686Z,13.23
2022-10-13T07:45:10.052Z,13.36
2022-10-13T07:48:12.531Z,13.51
2022-10-13T07:51:14.859Z,13.56
2022-10-13T07:54:21.579Z,13.84
2022-10-13T07:57:26.960Z,13.79
2022-10-13T08:00:29.563Z,14.22
2022-10-13T08:03:32.857Z,14.47
2022-10-13T08:06:35.493Z,14.76
2022-10-13T08:09:38.745Z,15.01
2022-10-13T08:12:41.110Z,15.00
2022-10-13T08:15:45.171Z,14.83
2022-10-13T08:18:49.345Z,14.85
2022-10-13T08:21:58.077Z,14.90
2022-10-13T08:25:02.003Z,15.15
2022-10-13T08:28:05.776Z,15.11
2022-10-13T08:31:08.502Z,15.02
2022-10-13T08:34:11.242Z,15.17
2022-10-13T08:37:14.918Z,15.21
2022-10-13T08:40:20.261Z,15.38
2022-10-13T08:43:24.310Z,15.33
2022-10-13T08:46:33.534Z,15.45
2022-10-13T08:49:36.151Z,15.73
2022-10-13T08:52:48.064Z,15.94
2022-10-13T08:56:20.258Z,15.86
2022-10-13T08:59:22.770Z,16.15
2022-10-13T09:02:29.706Z,16.35
2022-10-13T09:05:45.500Z,16.21
2022-10-13T09:08:51.480Z,16.04
2022-10-13T09:11:54.006Z,16.27
2022-10-13T09:15:09.726Z,16.34
2022-10-13T09:18:13.093Z,16.43
2022-10-13T09:21:24.914Z,16.62
2022-10-13T09:24:27.764Z,16.78
2022-10-13T09:27:41.383Z,16.75
2022-10-13T09:30:46.901Z,16.76
2022-10-13T09:33:57.413Z,16.82
2022-10-13T09:37:01.732Z,16.99
2022-10-13T09:40:19.630Z,17.02
2022-10-13T09:43:37.372Z,17.14
2022-10-13T09:46:46.446Z,17.09
2022-10-13T09:50:03.314Z,17.30
2022-10-13T09:53:31.148Z,17.20
2022-10-13T09:56:46.922Z,17.28
2022-10-13T09:59:50.697Z,17.31
2022-10-13T10:03:02.983Z,17.34
2022-10-13T10:06:06.886Z,17.33
2022-10-13T10:09:15.439Z,17.19
2022-10-13T10:12:20.290Z,16.96
2022-10-13T10:15:26.274Z,17.23
2022-10-13T10:18:28.864Z,17.27
2022-10-13T10:21:43.355Z,17.40
2022-10-13T10:24:49.446Z,17.50
2022-10-13T10:27:59.722Z,17.30
2022-10-13T10:31:21.795Z,17.35
2022-10-13T10:34:27.208Z,17.37
2022-10-13T10:37:48.725Z,17.27
2022-10-13T10:41:12.946Z,17.48
2022-10-13T10:44:21.431Z,17.64
2022-10-13T10:47:27.118Z,17.61
2022-10-13T10:50:30.927Z,17.86
2022-10-13T10:53:33.598Z,17.88
2022-10-13T10:56:42.582Z,18.20
2022-10-13T11:00:04.900Z,18.21
2022-10-13T11:03:13.407Z,18.21
2022-10-13T11:06:15.593Z,18.01
2022-10-13T11:09:38.038Z,18.12
2022-10-13T11:12:52.593Z,18.37
2022-10-13T11:15:55.692Z,18.50
2022-10-13T11:19:05.907Z,18.17
2022-10-13T11:22:16.252Z,18.25
2022-10-13T11:25:36.240Z,18.38
2022-10-13T11:28:45.329Z,18.44
2022-10-13T11:31:51.406Z,18.33
2022-10-13T11:35:06.183Z,18.42
2022-10-13T11:38:17.968Z,18.47
2022-10-13T11:41:28.370Z,18.60
2022-10-13T11:44:46.744Z,18.64
2022-10-13T11:51:12.583Z,18.92
2022-10-13T11:54:24.148Z,18.90
2022-10-13T11:57:27.847Z,18.77
2022-10-13T12:00:31.054Z,18.68
2022-10-13T12:03:35.316Z,18.80
2022-10-13T12:06:38.544Z,18.77
2022-10-13T12:09:52.211Z,18.90
2022-10-13T12:12:55.627Z,18.86
2022-10-13T12:16:01.014Z,19.03
2022-10-13T12:19:08.182Z,19.03
2022-10-13T12:22:11.816Z,19.00
2022-10-13T12:25:16.451Z,19.01
2022-10-13T12:28:19.694Z,19.10
2022-10-13T12:31:27.926Z,19.07
2022-10-13T12:34:36.359Z,19.24
2022-10-13T12:37:38.761Z,19.20
2022-10-13T12:40:41.426Z,19.09
2022-10-13T12:43:44.670Z,19.20
2022-10-13T12:46:48.943Z,19.05
2022-10-13T12:49:51.139Z,19.12
2022-10-13T12:53:26.178Z,19.13
2022-10-13T12:56:30.008Z,19.15
2022-10-13T12:59:32.848Z,19.07
2022-10-13T13:02:35.238Z,19.15
2022-10-13T13:05:39.871Z,19.05
2022-10-13T13:08:43.288Z,19.08
2022-10-13T13:11:46.695Z,19.05
2022-10-13T13:14:50.973Z,19.15
2022-10-13T13:17:58.614Z,19.17
2022-10-13T13:21:02.048Z,19.15
2022-10-13T13:24:16.231Z,19.13
2022-10-13T13:27:32.183Z,19.23
2022-10-13T13:30:34.889Z,19.34
2022-10-13T13:33:37.187Z,19.43
2022-10-13T13:36:40.343Z,19.42
2022-10-13T13:39:42.969Z,19.46
2022-10-13T13:42:45.669Z,19.32
2022-10-13T13:45:48.060Z,19.22
2022-10-13T13:48:50.942Z,19.00
2022-10-13T13:51:53.215Z,18.96
2022-10-13T13:54:56.239Z,18.99
2022-10-13T13:57:58.728Z,18.98
2022-10-13T14:01:04.093Z,18.82
2022-10-13T14:04:06.639Z,18.77
2022-10-13T14:07:09.117Z,18.68
2022-10-13T14:10:11.679Z,18.62
2022-10-13T14:13:14.038Z,18.68
2022-10-13T14:16:18.005Z,18.68
2022-10-13T14:19:20.238Z,18.57
2022-10-13T14:22:23.397Z,18.52
2022-10-13T14:25:25.962Z,18.31
2022-10-13T14:28:28.604Z,18.25
2022-10-13T14:31:32.990Z,18.15
2022-10-13T14:34:35.488Z,18.14
2022-10-13T14:37:38.580Z,18.03
2022-10-13T14:40:42.272Z,17.81
2022-10-13T14:43:44.567Z,17.66
2022-10-13T14:46:47.052Z,17.63
2022-10-13T14:49:49.534Z,17.58
2022-10-13T14:52:52.105Z,17.53
2022-10-13T14:55:54.360Z,17.41
2022-10-13T14:58:57.902Z,17.26
2022-10-13T15:02:03.610Z,17.17
2022-10-13T15:05:06.550Z,16.92
2022-10-13T15:08:08.775Z,16.84
2022-10-13T15:11:11.693Z,16.71
2022-10-13T15:14:13.971Z,16.60
2022-10-13T15:17:16.457Z,16.49
2022-10-13T15:20:18.785Z,16.38
2022-10-13T15:23:21.335Z,16.27
2022-10-13T15:26:23.555Z,16.15
2022-10-13T15:29:26.341Z,16.07
2022-10-13T15:32:28.632Z,15.95
2022-10-13T15:35:33.537Z,15.82
2022-10-13T15:38:35.781Z,15.74
2022-10-13T15:41:38.293Z,15.59
2022-10-13T15:45:04.559Z,15.47
2022-10-13T15:48:03.547Z,15.34
2022-10-13T15:51:09.497Z,15.17
2022-10-13T15:54:11.935Z,15.02
2022-10-13T15:57:14.556Z,14.87
2022-10-13T16:00:17.206Z,14.72
2022-10-13T16:03:19.647Z,14.59
2022-10-13T16:06:22.554Z,14.50
2022-10-13T16:09:25.803Z,14.37
2022-10-13T16:12:28.650Z,14.27
2022-10-13T16:15:31.663Z,14.19
2022-10-13T16:18:35.364Z,14.07
2022-10-13T16:21:37.878Z,13.97
2022-10-13T16:24:40.235Z,13.90
2022-10-13T16:27:44.607Z,13.84
2022-10-13T16:30:47.066Z,13.73
2022-10-13T16:33:49.572Z,13.66
2022-10-13T16:36:51.868Z,13.59
2022-10-13T16:39:54.500Z,13.58
2022-10-13T16:42:56.755Z,13.55
2022-10-13T16:46:00.624Z,13.50
2022-10-13T16:49:03.250Z,13.38
2022-10-13T16:52:05.798Z,13.33
2022-10-13T16:55:08.453Z,13.25
2022-10-13T16:58:11.218Z,13.21
2022-10-13T17:01:13.487Z,13.05
2022-10-13T17:04:21.176Z,12.91
2022-10-13T17:07:24.337Z,12.85
2022-10-13T17:10:26.892Z,12.75
2022-10-13T17:13:29.968Z,12.68
2022-10-13T17:16:32.818Z,12.62
2022-10-13T17:19:35.155Z,12.57
2022-10-13T17:22:37.913Z,12.54
2022-10-13T17:25:48.438Z,12.48
2022-10-13T17:28:51.137Z,12.43
2022-10-13T17:31:53.502Z,12.43
2022-10-13T17:34:57.187Z,12.38
2022-10-13T17:37:59.464Z,12.32
2022-10-13T17:41:03.226Z,12.29
2022-10-13T17:44:05.453Z,12.26
2022-10-13T17:47:07.961Z,12.19
2022-10-13T17:50:10.198Z,12.10
2022-10-13T17:53:12.828Z,12.05
2022-10-13T17:56:19.334Z,11.99
2022-10-13T17:59:22.013Z,11.95
2022-10-13T18:02:24.326Z,11.92
2022-10-13T18:05:26.957Z,11.96
2022-10-13T18:08:29.127Z,11.87
2022-10-13T18:11:31.709Z,11.79
2022-10-13T18:14:33.879Z,11.75
2022-10-13T18:17:36.730Z,11.75
2022-10-13T18:20:39.157Z,11.66
2022-10-13T18:23:42.065Z,11.71
2022-10-13T18:26:44.318Z,11.59
2022-10-13T18:29:46.843Z,11.51
2022-10-13T18:32:49.080Z,11.48
2022-10-13T18:35:51.650Z,11.43
2022-10-13T18:38:54.771Z,11.36
2022-10-13T18:41:57.676Z,11.36
2022-10-13T18:45:03.888Z,11.32
2022-10-13T18:48:06.600Z,11.25
2022-10-13T18:51:13.272Z,11.20
2022-10-13T18:54:15.882Z,11.15
2022-10-13T18:57:18.363Z,11.12
2022-10-13T19:00:23.681Z,11.02
2022-10-13T19:03:25.968Z,11.00
2022-10-13T19:06:30.403Z,10.92
2022-10-13T19:09:32.798Z,10.87
2022-10-13T19:12:35.458Z,10.82
2022-10-13T19:15:39.504Z,10.77
2022-10-13T19:18:42.408Z,10.74
2022-10-13T19:21:44.637Z,10.74
2022-10-13T19:24:47.196Z,10.69
2022-10-13T19:27:49.921Z,10.63
2022-10-13T19:30:52.717Z,10.56
2022-10-13T19:33:55.315Z,10.50
2022-10-13T19:36:59.230Z,10.49
2022-10-13T19:40:02.463Z,10.43
2022-10-13T19:43:05.227Z,10.46
2022-10-13T19:46:07.962Z,10.41
2022-10-13T19:49:11.228Z,10.39
2022-10-13T19:52:17.231Z,10.32
2022-10-13T19:55:19.745Z,10.26
2022-10-13T19:58:22.889Z,10.21
2022-10-13T20:01:25.499Z,10.20
2022-10-13T20:04:28.054Z,10.12
2022-10-13T20:07:30.303Z,10.06
2022-10-13T20:10:32.885Z,10.08
2022-10-13T20:13:35.569Z,10.03
2022-10-13T20:16:38.293Z,9.98
2022-10-13T20:19:40.787Z,9.95
2022-10-13T20:22:45.880Z,9.89
2022-10-13T20:25:48.133Z,9.83
2022-10-13T20:28:51.645Z,9.79
2022-10-13T20:31:53.915Z,9.76
2022-10-13T20:34:56.413Z,9.75
2022-10-13T20:37:58.721Z,9.73
2022-10-13T20:41:06.514Z,9.70
2022-10-13T20:44:09.479Z,9.67
2022-10-13T20:47:11.892Z,9.67
2022-10-13T20:50:14.928Z,9.74
2022-10-13T20:53:17.487Z,9.68
2022-10-13T20:56:21.626Z,9.64
2022-10-13T20:59:24.120Z,9.61
2022-10-13T21:02:26.552Z,9.63
2022-10-13T21:05:29.512Z,9.59
2022-10-13T21:08:31.923Z,9.57
2022-10-13T21:11:34.991Z,9.52
2022-10-13T21:14:37.229Z,9.47
2022-10-13T21:17:42.454Z,9.46
2022-10-13T21:20:44.791Z,9.42
2022-10-13T21:23:54.975Z,9.40
2022-10-13T21:26:57.824Z,9.42
2022-10-13T21:30:00.342Z,9.39
2022-10-13T21:33:02.589Z,9.36
2022-10-13T21:36:05.933Z,9.36
2022-10-13T21:39:09.606Z,9.32
2022-10-13T21:42:12.144Z,9.25
2022-10-13T21:45:15.246Z,9.24
2022-10-13T21:48:17.745Z,9.15
2022-10-13T21:51:24.307Z,9.09
2022-10-13T21:54:27.034Z,9.06
2022-10-13T21:57:29.185Z,9.06
2022-10-13T22:00:31.931Z,9.03
2022-10-13T22:03:34.931Z,9.00
2022-10-13T22:06:37.141Z,8.98
2022-10-13T22:09:39.703Z,8.93
2022-10-13T22:12:41.853Z,8.93
2022-10-13T22:15:45.156Z,8.94
2022-10-13T22:18:51.365Z,8.93
2022-10-13T22:21:53.841Z,8.94
2022-10-13T22:24:56.104Z,8.88
2022-10-13T22:27:58.628Z,8.85
2022-10-13T22:31:19.043Z,8.83
2022-10-13T22:34:21.674Z,8.78
2022-10-13T22:37:24.293Z,8.75
2022-10-13T22:40:26.945Z,8.74
2022-10-13T22:43:29.132Z,8.70
2022-10-13T22:46:33.790Z,8.68
2022-10-13T22:49:35.922Z,8.68
2022-10-13T22:52:38.948Z,8.66
2022-10-13T22:55:41.744Z,8.65
2022-10-13T22:58:48.373Z,8.65
2022-10-13T23:01:50.636Z,8.69
2022-10-13T23:04:53.139Z,8.90
2022-10-13T23:07:55.440Z,8.77
2022-10-13T23:10:59.930Z,8.68
2022-10-13T23:14:02.327Z,8.61
2022-10-13T23:17:04.848Z,8.61
2022-10-13T23:20:07.521Z,8.51
2022-10-13T23:23:10.162Z,8.45
2022-10-13T23:26:14.241Z,8.44
2022-10-13T23:29:16.959Z,8.40
2022-10-13T23:32:19.200Z,8.36
2022-10-13T23:35:22.215Z,8.38
2022-10-13T23:38:25.540Z,8.34
2022-10-13T23:41:28.360Z,8.26
2022-10-13T23:44:30.602Z,8.23
2022-10-13T23:47:33.276Z,8.21
2022-10-13T23:50:35.997Z,8.16
2022-10-13T23:53:40.887Z,8.08
2022-10-13T23:56:43.273Z,8.06
2022-10-13T23:59:46.057Z,8.04
